首页
METAR-TAF:

METAR-TAF

机场 :

韦策机场

Weeze, 德国

纬度: 51-36-09N, 经度: 006-08-32E, 海拔: 32米

当前天气观测

该预报发布于26分钟前的10:50 UTC
风速11节,风向西南,在西转西南之间变化
温度 20°C
湿度 64%
气压 1020 hPa
能见度10公里或以上
散云层高于3300英尺

METAR: EDLV 161050Z 23011KT 190V250 9999 SCT033 20/13 Q1020

时间: 13:16 (11:16 UTC)

预报

该预报发布于6小时和16分钟前的05:00 UTC
预报有效从16日的 06点(UTC)到 17日的 06点(UTC)
风速5节,风向南转西南
能见度10公里或以上
散云层高于4000英尺
成为
从 16日的 06点(UTC)到 16日的 09点(UTC)
风速10节,风向西南
成为
从 16日的 15点(UTC)到 16日的 18点(UTC)
风速5节,风向西转西南
成为
从 16日的 18点(UTC)到 16日的 21点(UTC)
风速2节,风向多变
几率 30% :
短暂存在
从 17日的 02点(UTC)到 17日的 05点(UTC)
能見度: 4000
轻雾

TAF: EDLV 160500Z 1606/1706 20005KT 9999 SCT040 BECMG 1606/1609 23010KT BECMG 1615/1618 24005KT BECMG 1618/1621 VRB02KT PROB30 TEMPO 1702/1705 4000 BR

超过4000个机场的气象观测和天气预报(METAR&TAF报告)。

可查询的气象台以黄色和红色小点在地图上表示。

将鼠标移到小点上方,可查看气象台名称。

然后点击查看天气观测和预报。

如需切换地图:点击带黑十字的绿色按钮放大地图;点击带横线的绿色按钮缩小地图;或者点击绿色箭头查看邻近地区的地图。


METAR-TAF: